Time;durP1;ratioP1;P1;durP2;ratioP2;P2;SDS_P1;SDS_P2;PMS_P1;PMS_P2;Temp;Humidity;BMP_temperature;BMP_pressure;BME280_temperature;BME280_humidity;BME280_pressure;Samples;Min_cycle;Max_cycle;Signal;HPM_P1;HPM_P2
2024/02/21 00:00:14;;;;;;;;;;;;;;;10.44;54.50;101357.22;4908043;28;98914;-66
2024/02/21 00:02:42;;;;;;;;;;;;;;;10.45;54.55;101357.00;4905947;28;99597;-71
2024/02/21 00:05:08;;;;;;;;;;;;;;;10.45;54.09;101354.28;4907711;28;98109;-71
2024/02/21 00:07:35;;;;;;;;;;;;;;;10.44;54.11;101352.63;4926734;28;98393;-67
2024/02/21 00:10:03;;;;;;;;;;;;;;;10.44;54.31;101347.25;4928048;28;99007;-67
2024/02/21 00:12:29;;;;;;;;;;;;;;;10.45;54.74;101351.59;4928438;28;98129;-71
2024/02/21 00:14:56;;;;;;;;;;;;;;;10.45;54.19;101350.75;4926373;28;98402;-71
2024/02/21 00:17:23;;;;;;;;;;;;;;;10.44;54.24;101347.25;4921622;28;99451;-71
2024/02/21 00:19:50;;;;;;;;;;;;;;;10.45;54.50;101348.06;4920944;28;99447;-67
2024/02/21 00:22:16;;;;;;;;;;;;;;;10.45;54.50;101339.97;4925862;28;99013;-67
2024/02/21 00:24:43;;;;;;;;;;;;;;;10.45;54.38;101337.28;4909283;28;99420;-67
2024/02/21 00:27:10;;;;;;;;;;;;;;;10.45;54.22;101339.97;4929062;28;98428;-66
2024/02/21 00:29:36;;;;;;;;;;;;;;;10.44;54.50;101328.38;4908399;28;100082;-71
2024/02/21 00:32:04;;;;;;;;;;;;;;;10.45;54.41;101331.88;4930189;28;98236;-67
2024/02/21 00:34:31;;;;;;;;;;;;;;;10.44;54.67;101323.00;4949687;28;97973;-67
2024/02/21 00:36:59;;;;;;;;;;;;;;;10.44;54.26;101328.38;4911373;28;100481;-67
2024/02/21 00:39:26;;;;;;;;;;;;;;;10.44;54.23;101316.78;4918006;28;98079;-71
2024/02/21 00:41:54;;;;;;;;;;;;;;;10.43;54.65;101317.84;4929127;28;98646;-66
2024/02/21 00:44:22;;;;;;;;;;;;;;;10.44;54.11;101311.41;4914713;28;98355;-67
2024/02/21 00:46:48;;;;;;;;;;;;;;;10.44;54.36;101314.09;4928351;28;98352;-70
2024/02/21 00:49:16;;;;;;;;;;;;;;;10.44;54.51;101314.09;4957407;28;98244;-72
2024/02/21 00:51:43;;;;;;;;;;;;;;;10.44;54.30;101314.09;4909270;28;99816;-66
2024/02/21 00:54:12;;;;;;;;;;;;;;;10.43;54.72;101301.69;4928911;28;98615;-72
2024/02/21 00:56:41;;;;;;;;;;;;;;;10.42;54.41;101295.47;4923007;28;98204;-67
2024/02/21 00:59:08;;;;;;;;;;;;;;;10.43;54.12;101296.28;4924491;28;98296;-67
2024/02/21 01:01:35;;;;;;;;;;;;;;;10.42;54.45;101289.28;4908578;28;98082;-71
2024/02/21 01:04:01;;;;;;;;;;;;;;;10.41;53.97;101287.63;4905739;28;98105;-71
2024/02/21 01:06:27;;;;;;;;;;;;;;;10.41;54.15;101288.44;4941488;28;98291;-67
2024/02/21 01:08:54;;;;;;;;;;;;;;;10.41;54.56;101284.94;4907633;28;101267;-71
2024/02/21 01:11:20;;;;;;;;;;;;;;;10.41;54.07;101287.63;4920768;28;100203;-71
2024/02/21 01:13:47;;;;;;;;;;;;;;;10.40;54.51;101286.81;4922948;28;98261;-68
2024/02/21 01:16:13;;;;;;;;;;;;;;;10.40;54.57;101280.59;4908245;28;98298;-67
2024/02/21 01:18:41;;;;;;;;;;;;;;;10.40;54.75;101277.91;4919273;28;98418;-67
2024/02/21 01:21:09;;;;;;;;;;;;;;;10.37;54.71;101279.22;4923902;28;98284;-70
2024/02/21 01:23:36;;;;;;;;;;;;;;;10.38;54.37;101280.88;4918175;28;98122;-72
2024/02/21 01:26:03;;;;;;;;;;;;;;;10.36;54.15;101268.69;4917863;28;98829;-67
2024/02/21 01:28:32;;;;;;;;;;;;;;;10.36;54.08;101269.50;4924740;28;98041;-67
2024/02/21 01:30:59;;;;;;;;;;;;;;;10.35;54.51;101259.78;4921353;28;98409;-67
2024/02/21 01:33:27;;;;;;;;;;;;;;;10.35;54.40;101265.19;4907241;28;98470;-67
2024/02/21 01:35:53;;;;;;;;;;;;;;;10.35;54.58;101258.97;4906554;28;100018;-72
2024/02/21 01:38:21;;;;;;;;;;;;;;;10.34;54.36;101265.44;4934558;28;98161;-66
2024/02/21 01:40:47;;;;;;;;;;;;;;;10.33;54.06;101256.50;4919391;28;98160;-71
2024/02/21 01:43:20;;;;;;;;;;;;;;;10.32;54.37;101253.00;4918111;28;98036;-71
2024/02/21 01:45:57;;;;;;;;;;;;;;;10.33;54.33;101251.13;4927014;28;98115;-71
2024/02/21 01:48:23;;;;;;;;;;;;;;;10.32;54.53;101244.91;4905598;28;98181;-66
2024/02/21 01:50:50;;;;;;;;;;;;;;;10.32;54.59;101233.31;4921358;28;98634;-70
2024/02/21 01:53:24;;;;;;;;;;;;;;;10.31;54.47;101235.22;4936389;28;98149;-71
2024/02/21 01:55:51;;;;;;;;;;;;;;;10.31;54.39;101242.47;4937770;28;98689;-71
2024/02/21 01:58:18;;;;;;;;;;;;;;;10.31;54.46;101229.81;4912282;28;99013;-71
2024/02/21 02:00:47;;;;;;;;;;;;;;;10.30;54.52;101228.19;4916996;28;98264;-66
2024/02/21 02:03:22;;;;;;;;;;;;;;;10.31;54.38;101218.22;4907299;28;98522;-71
2024/02/21 02:05:53;;;;;;;;;;;;;;;10.30;54.58;101227.38;4910163;28;98327;-70
2024/02/21 02:08:22;;;;;;;;;;;;;;;10.30;54.56;101225.50;4924468;28;98167;-66
2024/02/21 02:10:50;;;;;;;;;;;;;;;10.30;54.29;101219.31;4933960;28;98287;-66
2024/02/21 02:13:17;;;;;;;;;;;;;;;10.29;54.37;101223.84;4904559;28;97964;-70
2024/02/21 02:15:45;;;;;;;;;;;;;;;10.30;54.64;101209.34;4908843;28;98210;-66
2024/02/21 02:18:11;;;;;;;;;;;;;;;10.29;54.63;101215.75;4906063;28;98196;-71
2024/02/21 02:20:38;;;;;;;;;;;;;;;10.30;54.55;101217.41;4916339;28;98346;-66
2024/02/21 02:23:09;;;;;;;;;;;;;;;10.31;54.29;101212.84;4902577;28;99048;-66
2024/02/21 02:25:36;;;;;;;;;;;;;;;10.30;54.65;101208.53;4926846;28;98300;-71
2024/02/21 02:28:06;;;;;;;;;;;;;;;10.30;54.55;101203.13;4910767;28;98175;-66
2024/02/21 02:30:37;;;;;;;;;;;;;;;10.31;54.35;101207.44;4952404;28;98683;-66
2024/02/21 02:33:07;;;;;;;;;;;;;;;10.30;54.20;101197.75;4903578;28;98243;-71
2024/02/21 02:35:35;;;;;;;;;;;;;;;10.30;54.60;101198.56;4918889;28;98437;-71
2024/02/21 02:38:02;;;;;;;;;;;;;;;10.30;54.27;101195.84;4920307;28;99725;-71
2024/02/21 02:40:35;;;;;;;;;;;;;;;10.30;54.46;101195.84;4920584;28;100097;-66
2024/02/21 02:43:05;;;;;;;;;;;;;;;10.28;54.39;101192.59;4921959;28;99209;-66
2024/02/21 02:45:34;;;;;;;;;;;;;;;10.29;54.53;101194.19;4913022;28;98337;-66
2024/02/21 02:48:04;;;;;;;;;;;;;;;10.30;54.41;101184.28;4903877;28;98052;-66
2024/02/21 02:50:31;;;;;;;;;;;;;;;10.31;54.51;101183.19;4921581;28;98524;-66
2024/02/21 02:52:57;;;;;;;;;;;;;;;10.30;54.32;101179.69;4922880;28;97996;-71
2024/02/21 02:55:23;;;;;;;;;;;;;;;10.28;54.32;101179.09;4936708;28;98135;-71
2024/02/21 02:57:52;;;;;;;;;;;;;;;10.30;54.50;101184.28;4906633;28;98623;-66
2024/02/21 03:00:18;;;;;;;;;;;;;;;10.29;54.40;101186.13;4908035;28;98467;-71
2024/02/21 03:02:48;;;;;;;;;;;;;;;10.28;54.38;101175.59;4926766;28;98093;-66
2024/02/21 03:05:19;;;;;;;;;;;;;;;10.31;54.24;101177.81;4927242;28;100999;-66
2024/02/21 03:07:46;;;;;;;;;;;;;;;10.29;54.37;101178.03;4911880;28;98395;-66
2024/02/21 03:10:13;;;;;;;;;;;;;;;10.29;54.23;101172.66;4943948;28;98450;-71
2024/02/21 03:12:40;;;;;;;;;;;;;;;10.30;54.44;101173.50;4906073;28;98567;-71
2024/02/21 03:15:07;;;;;;;;;;;;;;;10.27;54.72;101166.72;4913804;28;98014;-66
2024/02/21 03:17:34;;;;;;;;;;;;;;;10.26;54.73;101165.09;4937978;28;98224;-71
2024/02/21 03:20:08;;;;;;;;;;;;;;;10.23;54.17;101159.34;4903492;28;99884;-66
2024/02/21 03:22:37;;;;;;;;;;;;;;;10.21;54.51;101154.19;4921675;28;98443;-66
2024/02/21 03:25:04;;;;;;;;;;;;;;;10.20;54.25;101159.84;4930306;28;98274;-71
2024/02/21 03:27:31;;;;;;;;;;;;;;;10.19;54.54;101158.22;4904869;28;98496;-71
2024/02/21 03:29:57;;;;;;;;;;;;;;;10.16;54.57;101150.63;4896886;28;100249;-66
2024/02/21 03:32:25;;;;;;;;;;;;;;;10.16;54.28;101151.44;4898797;28;98358;-66
2024/02/21 03:34:51;;;;;;;;;;;;;;;10.14;54.17;101155.41;4907830;28;99967;-66
2024/02/21 03:37:18;;;;;;;;;;;;;;;10.13;54.54;101153.78;4917194;28;98170;-71
2024/02/21 03:39:48;;;;;;;;;;;;;;;10.12;54.54;101146.78;4915029;28;98113;-66
2024/02/21 03:42:14;;;;;;;;;;;;;;;10.11;53.96;101140.59;4915735;28;98090;-71
2024/02/21 03:44:41;;;;;;;;;;;;;;;10.10;54.50;101138.97;4934432;28;102754;-70
2024/02/21 03:47:10;;;;;;;;;;;;;;;10.09;54.21;101126.53;4907964;28;98270;-71
2024/02/21 03:49:42;;;;;;;;;;;;;;;10.08;54.42;101130.28;4921189;28;98202;-66
2024/02/21 03:52:09;;;;;;;;;;;;;;;10.07;54.16;101125.97;4925271;28;98426;-66
2024/02/21 03:54:36;;;;;;;;;;;;;;;10.06;54.40;101127.03;4920071;28;97974;-71
2024/02/21 03:57:02;;;;;;;;;;;;;;;10.05;54.60;101139.69;4921123;28;98487;-66
2024/02/21 03:59:29;;;;;;;;;;;;;;;10.06;54.52;101145.88;4902992;28;98947;-66
2024/02/21 04:01:56;;;;;;;;;;;;;;;10.05;54.65;101139.69;4905376;28;98407;-66
2024/02/21 04:04:23;;;;;;;;;;;;;;;10.04;54.04;101140.75;4909015;28;98252;-71
2024/02/21 04:06:51;;;;;;;;;;;;;;;10.03;54.36;101143.69;4935730;28;98015;-71
2024/02/21 04:09:18;;;;;;;;;;;;;;;10.03;54.04;101141.00;4901571;28;98589;-71
2024/02/21 04:11:51;;;;;;;;;;;;;;;10.03;54.13;101146.41;4940137;28;98398;-66
2024/02/21 04:14:20;;;;;;;;;;;;;;;10.02;53.96;101144.75;4929089;28;99677;-66
2024/02/21 04:16:46;;;;;;;;;;;;;;;10.01;54.37;101140.44;4922862;28;98358;-72
2024/02/21 04:19:13;;;;;;;;;;;;;;;10.00;54.58;101149.56;4926017;28;98643;-66
2024/02/21 04:21:40;;;;;;;;;;;;;;;9.99;54.09;101145.25;4901271;28;98877;-71
2024/02/21 04:24:07;;;;;;;;;;;;;;;9.99;54.09;101143.38;4924240;28;98613;-66
2024/02/21 04:26:35;;;;;;;;;;;;;;;9.99;54.49;101138.00;4921530;28;98058;-70
2024/02/21 04:29:01;;;;;;;;;;;;;;;9.99;54.11;101142.56;4919382;28;100332;-71
2024/02/21 04:31:28;;;;;;;;;;;;;;;9.98;54.65;101135.53;4898370;28;98738;-67
2024/02/21 04:33:55;;;;;;;;;;;;;;;9.97;54.20;101129.31;4900635;28;100078;-66
2024/02/21 04:36:22;;;;;;;;;;;;;;;9.97;54.44;101133.91;4922669;28;98174;-71
2024/02/21 04:38:50;;;;;;;;;;;;;;;9.96;54.49;101127.69;4909252;28;98501;-66
2024/02/21 04:41:17;;;;;;;;;;;;;;;9.96;54.69;101125.00;4942062;28;99644;-71
2024/02/21 04:43:46;;;;;;;;;;;;;;;9.96;54.73;101125.00;4906613;28;97877;-66
2024/02/21 04:46:13;;;;;;;;;;;;;;;9.95;54.22;101117.19;4910402;28;98946;-66
2024/02/21 04:48:39;;;;;;;;;;;;;;;9.94;54.54;101115.53;4918566;28;98432;-66
2024/02/21 04:51:05;;;;;;;;;;;;;;;9.96;54.46;101116.13;4923452;28;102627;-70
2024/02/21 04:53:31;;;;;;;;;;;;;;;9.94;54.32;101115.53;4902143;28;98178;-70
2024/02/21 04:55:58;;;;;;;;;;;;;;;9.93;54.79;101122.81;4916546;28;98049;-70
2024/02/21 04:58:32;;;;;;;;;;;;;;;9.93;54.20;101116.59;4904840;28;99975;-66
2024/02/21 05:01:00;;;;;;;;;;;;;;;9.93;54.39;101116.59;4901826;28;98474;-66
2024/02/21 05:03:27;;;;;;;;;;;;;;;9.93;54.24;101108.53;4934206;28;98082;-65
2024/02/21 05:05:53;;;;;;;;;;;;;;;9.92;54.08;101110.41;4906149;28;98116;-70
2024/02/21 05:08:20;;;;;;;;;;;;;;;9.92;54.28;101105.03;4910856;28;99948;-65
2024/02/21 05:10:47;;;;;;;;;;;;;;;9.93;54.44;101101.25;4926174;28;99602;-70
2024/02/21 05:13:13;;;;;;;;;;;;;;;9.92;54.30;101099.63;4924938;28;98084;-66
2024/02/21 05:15:41;;;;;;;;;;;;;;;9.93;54.60;101095.06;4921592;28;98158;-70
2024/02/21 05:18:07;;;;;;;;;;;;;;;9.93;54.67;101092.38;4917775;28;99557;-66
2024/02/21 05:20:34;;;;;;;;;;;;;;;9.92;54.45;101090.75;4924434;28;98354;-66
2024/02/21 05:23:04;;;;;;;;;;;;;;;9.92;54.31;101083.47;4920154;28;99354;-65
2024/02/21 05:25:31;;;;;;;;;;;;;;;9.93;54.61;101087.78;4929056;28;98264;-70
2024/02/21 05:28:02;;;;;;;;;;;;;;;9.93;54.52;101090.50;4905134;28;98877;-65
2024/02/21 05:30:29;;;;;;;;;;;;;;;9.94;54.68;101085.91;4938738;28;98340;-70
2024/02/21 05:32:58;;;;;;;;;;;;;;;9.93;54.69;101070.81;4920715;28;98208;-66
2024/02/21 05:35:31;;;;;;;;;;;;;;;9.92;54.14;101067.31;4904715;28;98199;-70
2024/02/21 05:37:59;;;;;;;;;;;;;;;9.92;54.25;101059.25;4921510;28;98318;-65
2024/02/21 05:40:25;;;;;;;;;;;;;;;9.93;54.15;101054.66;4937864;28;98694;-65
2024/02/21 05:42:52;;;;;;;;;;;;;;;9.92;54.04;101061.13;4902596;28;99996;-66
2024/02/21 05:45:19;;;;;;;;;;;;;;;9.92;54.06;101055.75;4936380;28;98049;-70
2024/02/21 05:47:48;;;;;;;;;;;;;;;9.93;54.58;101052.78;4917935;28;98395;-66
2024/02/21 05:50:17;;;;;;;;;;;;;;;9.98;54.11;101043.94;4917137;28;98306;-70
2024/02/21 05:52:44;;;;;;;;;;;;;;;10.05;54.82;101047.28;4921026;28;98719;-66
2024/02/21 05:55:10;;;;;;;;;;;;;;;10.11;54.29;101045.50;4917413;28;98500;-70
2024/02/21 05:57:36;;;;;;;;;;;;;;;10.16;54.67;101032.88;4914686;28;98325;-65
2024/02/21 06:00:06;;;;;;;;;;;;;;;10.19;54.32;101035.09;4904576;28;99645;-66
2024/02/21 06:02:33;;;;;;;;;;;;;;;10.23;54.29;101030.00;4903328;28;98567;-68
2024/02/21 06:04:59;;;;;;;;;;;;;;;10.25;54.33;101025.19;4904313;28;98192;-70
2024/02/21 06:07:26;;;;;;;;;;;;;;;10.27;54.74;101028.47;4916919;28;98464;-70
2024/02/21 06:09:52;;;;;;;;;;;;;;;10.29;54.74;101023.63;4906689;28;97959;-65
2024/02/21 06:12:19;;;;;;;;;;;;;;;10.29;54.30;101021.75;4921466;28;99675;-70
2024/02/21 06:14:45;;;;;;;;;;;;;;;10.31;54.10;101016.13;4933379;28;98358;-65
2024/02/21 06:17:12;;;;;;;;;;;;;;;10.31;54.77;101011.53;4921110;28;98247;-70
2024/02/21 06:19:42;;;;;;;;;;;;;;;10.31;54.60;101011.53;4904534;28;98466;-65
2024/02/21 06:22:08;;;;;;;;;;;;;;;10.32;54.49;101013.16;4923114;28;99838;-66
2024/02/21 06:24:36;;;;;;;;;;;;;;;10.32;54.18;101013.16;4912679;28;98543;-70
2024/02/21 06:27:03;;;;;;;;;;;;;;;10.32;54.53;101012.34;4926083;28;98131;-65
2024/02/21 06:29:30;;;;;;;;;;;;;;;10.34;54.83;101017.50;4956045;28;99505;-65
2024/02/21 06:31:56;;;;;;;;;;;;;;;10.34;54.66;101006.72;4944533;28;98357;-70
2024/02/21 06:34:23;;;;;;;;;;;;;;;10.34;54.59;101010.25;4951753;28;98591;-70
2024/02/21 06:36:50;;;;;;;;;;;;;;;10.35;54.28;101005.66;4907711;28;99280;-65
2024/02/21 06:39:18;;;;;;;;;;;;;;;10.35;54.57;101011.84;4907337;28;98229;-65
2024/02/21 06:41:45;;;;;;;;;;;;;;;10.36;54.25;101015.38;4908647;28;98239;-69
2024/02/21 06:44:12;;;;;;;;;;;;;;;10.37;54.83;101019.69;4953614;28;98092;-70
2024/02/21 06:46:39;;;;;;;;;;;;;;;10.39;54.64;101015.69;4931276;28;98360;-65
2024/02/21 06:49:06;;;;;;;;;;;;;;;10.38;54.22;101016.75;4920939;28;97936;-70
2024/02/21 06:51:34;;;;;;;;;;;;;;;10.40;54.27;101021.88;4899095;28;100169;-65
2024/02/21 06:54:01;;;;;;;;;;;;;;;10.42;54.62;101025.97;4925745;28;98446;-71
2024/02/21 06:56:28;;;;;;;;;;;;;;;10.43;54.27;101021.38;4924575;28;98815;-70
2024/02/21 06:59:00;;;;;;;;;;;;;;;10.43;54.00;101019.50;4921872;28;98433;-65
2024/02/21 07:01:27;;;;;;;;;;;;;;;10.46;54.49;101026.25;4921078;28;98354;-70
2024/02/21 07:03:54;;;;;;;;;;;;;;;10.47;54.15;101027.88;4907359;28;98188;-70
2024/02/21 07:06:23;;;;;;;;;;;;;;;10.47;54.55;101038.66;4906249;28;98545;-65
2024/02/21 07:08:50;;;;;;;;;;;;;;;10.46;54.33;101037.88;4920236;28;98605;-65
2024/02/21 07:11:17;;;;;;;;;;;;;;;10.48;54.23;101042.97;4937995;28;98049;-65
2024/02/21 07:13:44;;;;;;;;;;;;;;;10.50;54.07;101036.28;4902848;28;98075;-70
2024/02/21 07:16:11;;;;;;;;;;;;;;;10.52;54.20;101025.25;4904418;28;98437;-65
2024/02/21 07:18:38;;;;;;;;;;;;;;;10.59;54.32;101022.34;4937388;28;98079;-70
2024/02/21 07:21:05;;;;;;;;;;;;;;;10.62;54.15;101030.75;4909138;28;99262;-65
2024/02/21 07:23:32;;;;;;;;;;;;;;;10.64;54.40;101036.69;4908694;28;98799;-70
2024/02/21 07:25:59;;;;;;;;;;;;;;;10.64;54.23;101044.78;4910487;28;97996;-65
2024/02/21 07:28:26;;;;;;;;;;;;;;;10.65;54.09;101048.28;4943606;28;98260;-70
2024/02/21 07:30:54;;;;;;;;;;;;;;;10.67;54.00;101043.47;4936291;28;98815;-70
2024/02/21 07:33:20;;;;;;;;;;;;;;;10.71;54.26;101044.59;4954070;28;99259;-66
2024/02/21 07:35:48;;;;;;;;;;;;;;;10.76;54.36;101045.44;4938724;28;99037;-65
2024/02/21 07:38:18;;;;;;;;;;;;;;;10.79;54.08;101039.53;4907969;28;98244;-65
2024/02/21 07:40:45;;;;;;;;;;;;;;;10.84;54.31;101038.78;4916574;28;97975;-65
2024/02/21 07:43:12;;;;;;;;;;;;;;;10.87;53.89;101037.47;4920799;28;98421;-66
2024/02/21 07:45:39;;;;;;;;;;;;;;;10.85;54.21;101040.44;4903832;28;98105;-70
2024/02/21 07:48:09;;;;;;;;;;;;;;;10.83;54.09;101037.16;4906739;28;98438;-65
2024/02/21 07:50:36;;;;;;;;;;;;;;;10.82;54.16;101041.75;4918803;28;100079;-66
2024/02/21 07:53:03;;;;;;;;;;;;;;;10.85;54.25;101034.22;4917288;28;97918;-65
2024/02/21 07:55:30;;;;;;;;;;;;;;;10.89;53.96;101044.25;4940400;28;99611;-69
2024/02/21 07:57:57;;;;;;;;;;;;;;;10.95;53.88;101040.50;4918757;28;97914;-65
2024/02/21 08:00:24;;;;;;;;;;;;;;;11.01;53.76;101036.78;4919128;28;98241;-65
2024/02/21 08:02:51;;;;;;;;;;;;;;;11.09;54.04;101037.41;4935803;28;98436;-70
2024/02/21 08:05:18;;;;;;;;;;;;;;;11.14;54.02;101037.44;4905958;28;97932;-70
2024/02/21 08:07:49;;;;;;;;;;;;;;;11.16;53.79;101037.97;4906725;28;98175;-66
2024/02/21 08:10:16;;;;;;;;;;;;;;;11.13;53.90;101042.03;4922826;28;99650;-72
2024/02/21 08:12:42;;;;;;;;;;;;;;;11.11;54.16;101046.84;4913500;28;98245;-70
2024/02/21 08:15:10;;;;;;;;;;;;;;;11.08;53.94;101041.97;4922784;28;98316;-70
2024/02/21 08:17:37;;;;;;;;;;;;;;;11.05;53.98;101042.50;4911893;28;98031;-71
2024/02/21 08:20:04;;;;;;;;;;;;;;;11.05;54.26;101031.69;4926175;28;98052;-71
2024/02/21 08:22:31;;;;;;;;;;;;;;;11.02;54.41;101035.72;4942381;28;98512;-65
2024/02/21 08:24:59;;;;;;;;;;;;;;;10.99;54.15;101025.44;4920544;28;98803;-70
2024/02/21 08:27:25;;;;;;;;;;;;;;;11.01;54.32;101022.50;4906353;28;98488;-70
2024/02/21 08:29:52;;;;;;;;;;;;;;;11.01;54.23;101023.31;4906697;28;99529;-70
2024/02/21 08:32:19;;;;;;;;;;;;;;;11.01;54.37;101017.09;4902056;28;98096;-70
2024/02/21 08:34:47;;;;;;;;;;;;;;;11.01;54.23;101009.81;4926223;28;98102;-65
2024/02/21 08:37:13;;;;;;;;;;;;;;;11.04;53.98;101012.00;4917932;28;98263;-70
2024/02/21 08:39:40;;;;;;;;;;;;;;;11.05;54.31;101015.50;4910210;28;98186;-70
2024/02/21 08:42:06;;;;;;;;;;;;;;;11.04;54.05;101006.63;4907450;28;98010;-70
2024/02/21 08:44:32;;;;;;;;;;;;;;;11.04;54.36;101012.00;4902124;28;98164;-70
2024/02/21 08:47:01;;;;;;;;;;;;;;;11.05;54.26;101002.84;4935342;28;98549;-70
2024/02/21 08:49:28;;;;;;;;;;;;;;;11.06;54.32;101001.75;4909684;28;98789;-66
2024/02/21 08:51:55;;;;;;;;;;;;;;;11.07;54.05;100997.97;4909971;28;99638;-70
2024/02/21 08:54:22;;;;;;;;;;;;;;;11.09;54.08;101000.44;4911610;28;98130;-70
2024/02/21 08:56:51;;;;;;;;;;;;;;;11.10;54.04;100995.84;4918302;28;98368;-65
2024/02/21 08:59:21;;;;;;;;;;;;;;;11.11;54.23;100995.59;4927250;28;98240;-66
2024/02/21 09:01:49;;;;;;;;;;;;;;;11.12;54.21;100989.13;4923748;28;98239;-70
2024/02/21 09:04:15;;;;;;;;;;;;;;;11.14;54.21;100991.56;4953793;28;98118;-65
2024/02/21 09:06:43;;;;;;;;;;;;;;;11.16;54.23;100981.31;4910990;28;99486;-66
2024/02/21 09:09:11;;;;;;;;;;;;;;;11.20;54.22;100990.53;4931573;28;98141;-65
2024/02/21 09:11:39;;;;;;;;;;;;;;;11.27;54.01;100988.41;4907738;28;99535;-66
2024/02/21 09:14:05;;;;;;;;;;;;;;;11.37;53.87;100985.00;4941176;28;99609;-66
2024/02/21 09:16:35;;;;;;;;;;;;;;;11.56;53.69;100988.91;4936717;28;98314;-66
2024/02/21 09:19:02;;;;;;;;;;;;;;;11.80;53.55;100986.59;4940954;28;98069;-70
2024/02/21 09:21:28;;;;;;;;;;;;;;;12.08;53.28;100995.38;4941974;28;98503;-70
2024/02/21 09:23:55;;;;;;;;;;;;;;;12.13;53.37;101001.59;4912031;28;98145;-66
2024/02/21 09:26:22;;;;;;;;;;;;;;;12.19;53.45;101008.69;4911237;28;98485;-70
2024/02/21 09:28:48;;;;;;;;;;;;;;;12.35;53.47;101009.53;4920658;28;98286;-70
2024/02/21 09:31:14;;;;;;;;;;;;;;;12.80;52.87;101007.19;4939615;28;99679;-66
2024/02/21 09:33:41;;;;;;;;;;;;;;;13.09;52.51;101011.00;4937274;28;98433;-70
2024/02/21 09:36:08;;;;;;;;;;;;;;;13.02;52.94;101013.97;4922160;28;98572;-70
2024/02/21 09:38:36;;;;;;;;;;;;;;;13.06;52.79;101005.31;4907674;28;99682;-66
2024/02/21 09:41:32;;;;;;;;;;;;;;;13.03;52.92;101006.66;4906184;28;98129;-70
2024/02/21 09:43:58;;;;;;;;;;;;;;;13.02;53.47;101008.56;4908044;28;98769;-70
2024/02/21 09:46:51;;;;;;;;;;;;;;;13.02;53.48;101015.88;4907531;28;98158;-66
2024/02/21 09:49:24;;;;;;;;;;;;;;;12.97;53.29;101008.56;4932981;28;99916;-66
2024/02/21 09:51:52;;;;;;;;;;;;;;;12.96;53.31;101003.41;4916090;28;99504;-66
2024/02/21 09:54:20;;;;;;;;;;;;;;;12.99;53.25;101006.38;4904553;28;98191;-70
2024/02/21 09:56:48;;;;;;;;;;;;;;;12.98;53.49;100999.34;4904971;28;98302;-66
2024/02/21 09:59:15;;;;;;;;;;;;;;;12.99;53.66;100995.56;4904151;28;98233;-71
2024/02/21 10:01:44;;;;;;;;;;;;;;;12.99;53.30;101005.59;4935706;28;98226;-70
2024/02/21 10:04:11;;;;;;;;;;;;;;;12.96;53.70;100996.09;4940768;28;98413;-66
2024/02/21 10:06:38;;;;;;;;;;;;;;;12.95;53.69;100999.09;4918903;28;98129;-70
2024/02/21 10:09:07;;;;;;;;;;;;;;;13.04;53.72;100989.34;4919423;28;98953;-66
2024/02/21 10:11:37;;;;;;;;;;;;;;;13.18;53.30;100995.03;4917762;28;98946;-66
2024/02/21 10:14:08;;;;;;;;;;;;;;;13.48;53.11;100988.81;4903724;28;97997;-66
2024/02/21 10:16:35;;;;;;;;;;;;;;;13.95;52.60;100980.25;4906294;28;98401;-70
2024/02/21 10:19:03;;;;;;;;;;;;;;;14.22;52.14;100987.16;4924718;28;98538;-70
2024/02/21 10:21:32;;;;;;;;;;;;;;;14.30;52.29;100974.94;4904643;28;98214;-66
2024/02/21 10:23:59;;;;;;;;;;;;;;;14.71;52.00;100972.81;4932807;28;98281;-66
2024/02/21 10:26:26;;;;;;;;;;;;;;;15.46;51.37;100975.13;4904684;28;98209;-70
2024/02/21 10:28:55;;;;;;;;;;;;;;;15.44;51.76;100974.59;4908786;28;98422;-66
2024/02/21 10:31:25;;;;;;;;;;;;;;;15.42;52.22;100966.75;4906332;28;99732;-71
2024/02/21 10:34:02;;;;;;;;;;;;;;;16.10;51.03;100965.72;4924965;28;98593;-71
2024/02/21 10:36:29;;;;;;;;;;;;;;;16.43;51.08;100961.19;4924041;28;98364;-71
2024/02/21 10:38:56;;;;;;;;;;;;;;;17.06;50.40;100957.22;4907189;28;98329;-66
2024/02/21 10:41:23;;;;;;;;;;;;;;;17.39;50.48;100949.81;4904420;28;98041;-71
2024/02/21 10:43:55;;;;;;;;;;;;;;;17.81;50.36;100947.94;4900107;28;98108;-71
2024/02/21 10:46:24;;;;;;;;;;;;;;;18.48;49.75;100938.31;4909907;28;98190;-67
2024/02/21 10:49:10;;;;;;;;;;;;;;;18.13;50.52;100946.97;4922394;28;98031;-71
2024/02/21 10:51:37;;;;;;;;;;;;;;;17.81;51.40;100936.22;4933840;28;98328;-67
2024/02/21 10:54:15;;;;;;;;;;;;;;;17.72;51.50;100941.53;4898878;28;98395;-71
2024/02/21 10:56:42;;;;;;;;;;;;;;;17.50;51.76;100933.28;4906776;28;99142;-66
2024/02/21 10:59:09;;;;;;;;;;;;;;;17.23;52.11;100937.59;4903595;28;97985;-71
2024/02/21 11:01:36;;;;;;;;;;;;;;;16.95;52.54;100936.72;4942178;28;98263;-66
2024/02/21 11:04:06;;;;;;;;;;;;;;;16.76;52.62;100931.31;4917351;28;99223;-67
2024/02/21 11:06:34;;;;;;;;;;;;;;;16.54;52.98;100936.53;4925909;28;99803;-71
2024/02/21 11:09:09;;;;;;;;;;;;;;;16.37;53.10;100926.97;4917062;28;98373;-66
2024/02/21 11:11:35;;;;;;;;;;;;;;;16.24;52.97;100924.22;4909590;28;98255;-71
2024/02/21 11:14:11;;;;;;;;;;;;;;;16.06;53.23;100928.53;4937262;28;98359;-71
2024/02/21 11:16:42;;;;;;;;;;;;;;;15.84;53.51;100929.91;4925196;28;98375;-69
2024/02/21 11:19:09;;;;;;;;;;;;;;;15.66;53.55;100920.59;4922681;28;98660;-67
2024/02/21 11:21:37;;;;;;;;;;;;;;;15.55;53.61;100915.53;4924110;28;98946;-70
2024/02/21 11:24:07;;;;;;;;;;;;;;;15.41;53.50;100921.69;4904268;28;117262;-71
2024/02/21 11:26:37;;;;;;;;;;;;;;;15.28;53.83;100916.91;4928066;28;99109;-66
2024/02/21 11:29:04;;;;;;;;;;;;;;;15.19;53.77;100918.66;4902495;28;98483;-71
2024/02/21 11:31:45;;;;;;;;;;;;;;;15.10;53.81;100907.59;4925818;28;98295;-66
2024/02/21 11:34:12;;;;;;;;;;;;;;;15.03;53.94;100901.69;4922825;28;98584;-67
2024/02/21 11:36:51;;;;;;;;;;;;;;;15.05;53.55;100893.25;4915009;28;98258;-71
2024/02/21 11:39:25;;;;;;;;;;;;;;;15.03;53.84;100887.31;4919405;28;102733;-71
2024/02/21 11:42:10;;;;;;;;;;;;;;;15.04;53.52;100892.44;4904624;28;98426;-66
2024/02/21 11:44:40;;;;;;;;;;;;;;;15.10;53.55;100885.88;4927442;28;98752;-71
2024/02/21 11:47:07;;;;;;;;;;;;;;;15.14;53.39;100886.94;4926809;28;98087;-66
2024/02/21 11:49:45;;;;;;;;;;;;;;;15.10;53.59;100887.78;4910740;28;98022;-71
2024/02/21 11:52:14;;;;;;;;;;;;;;;15.18;53.43;100884.44;4921647;28;98573;-71
2024/02/21 11:54:40;;;;;;;;;;;;;;;15.26;53.29;100866.72;4938201;28;98384;-71
2024/02/21 11:57:07;;;;;;;;;;;;;;;15.34;53.08;100871.50;4918279;28;99661;-71
2024/02/21 11:59:35;;;;;;;;;;;;;;;15.53;53.14;100860.69;4904790;28;98860;-66
2024/02/21 12:02:03;;;;;;;;;;;;;;;15.77;52.74;100853.34;4906572;28;99435;-71
2024/02/21 12:04:32;;;;;;;;;;;;;;;15.76;52.76;100854.44;4924418;28;98289;-71
2024/02/21 12:06:59;;;;;;;;;;;;;;;15.88;52.82;100846.66;4904589;28;98426;-70
2024/02/21 12:09:26;;;;;;;;;;;;;;;16.13;52.61;100828.34;4903251;28;98263;-71
2024/02/21 12:12:05;;;;;;;;;;;;;;;16.26;52.44;100821.34;4905598;28;98433;-67
2024/02/21 12:14:32;;;;;;;;;;;;;;;16.29;52.48;100820.78;4941480;28;98560;-71
2024/02/21 12:17:04;;;;;;;;;;;;;;;16.29;52.61;100805.25;4907471;28;98681;-68
2024/02/21 12:19:31;;;;;;;;;;;;;;;16.37;52.59;100807.28;4925600;28;97996;-72
2024/02/21 12:21:58;;;;;;;;;;;;;;;16.45;52.41;100809.31;4923804;28;98855;-67
2024/02/21 12:24:27;;;;;;;;;;;;;;;16.58;52.21;100805.00;4902074;28;99737;-68
2024/02/21 12:26:58;;;;;;;;;;;;;;;16.51;52.72;100810.06;4924746;28;97939;-67
2024/02/21 12:29:30;;;;;;;;;;;;;;;16.45;52.79;100798.44;4920354;28;98275;-72
2024/02/21 12:31:59;;;;;;;;;;;;;;;16.53;52.75;100791.50;4918214;28;98001;-67
2024/02/21 12:34:27;;;;;;;;;;;;;;;16.58;52.77;100790.59;4905791;28;98223;-72
2024/02/21 12:36:57;;;;;;;;;;;;;;;16.63;52.69;100785.91;4906293;28;98666;-68
2024/02/21 12:39:28;;;;;;;;;;;;;;;16.68;52.56;100783.06;4913066;28;98402;-72
2024/02/21 12:41:56;;;;;;;;;;;;;;;16.91;52.55;100772.34;4900099;28;99171;-72